Time;durP1;ratioP1;P1;durP2;ratioP2;P2;SDS_P1;SDS_P2;PMS_P1;PMS_P2;Temp;Humidity;BMP_temperature;BMP_pressure;BME280_temperature;BME280_humidity;BME280_pressure;Samples;Min_cycle;Max_cycle;Signal;HPM_P1;HPM_P2
2021/04/05 00:01:45;;;;;;;;;;;;;;;5.87;60.91;99920.16;1760525;79;20337;-61
2021/04/05 00:04:13;;;;;;;;;;;;;;;5.87;60.71;99922.30;1762479;79;20231;-62
2021/04/05 00:06:40;;;;;;;;;;;;;;;5.83;60.65;99923.74;1763900;79;20504;-61
2021/04/05 00:09:09;;;;;;;;;;;;;;;5.77;60.59;99919.19;1602765;86;21235;-62
2021/04/05 00:11:37;;;;;;;;;;;;;;;5.69;60.56;99919.37;1646202;86;20363;-61
2021/04/05 00:14:05;;;;;;;;;;;;;;;5.59;60.67;99914.40;1640468;86;20276;-61
2021/04/05 00:16:32;;;;;;;;;;;;;;;5.55;60.86;99917.97;1639612;86;20271;-63
2021/04/05 00:19:02;;;;;;;;;;;;;;;5.53;60.78;99917.33;1609598;86;20190;-62
2021/04/05 00:21:30;;;;;;;;;;;;;;;5.52;60.48;99919.70;1591223;88;21301;-63
2021/04/05 00:24:00;;;;;;;;;;;;;;;5.47;60.35;99918.11;1610252;87;20265;-62
2021/04/05 00:26:29;;;;;;;;;;;;;;;5.41;60.35;99906.94;1629056;83;20144;-62
2021/04/05 00:28:57;;;;;;;;;;;;;;;5.37;60.55;99905.68;1703220;80;20135;-62
2021/04/05 00:31:25;;;;;;;;;;;;;;;5.36;60.51;99910.67;1733381;80;20516;-64
2021/04/05 00:33:53;;;;;;;;;;;;;;;5.33;60.52;99903.94;1734351;80;21282;-61
2021/04/05 00:36:21;;;;;;;;;;;;;;;5.30;60.77;99906.14;1733396;80;20232;-63
2021/04/05 00:38:49;;;;;;;;;;;;;;;5.27;60.93;99906.05;1732702;80;20222;-62
2021/04/05 00:41:17;;;;;;;;;;;;;;;5.25;61.14;99904.88;1612425;87;20296;-62
2021/04/05 00:43:48;;;;;;;;;;;;;;;5.20;61.32;99903.84;1609508;88;20272;-63
2021/04/05 00:46:20;;;;;;;;;;;;;;;5.17;61.43;99907.70;1612902;88;21199;-63
2021/04/05 00:48:47;;;;;;;;;;;;;;;5.15;61.54;99899.61;1607400;88;20306;-63
2021/04/05 00:51:19;;;;;;;;;;;;;;;5.12;61.74;99900.00;1609647;88;20353;-63
2021/04/05 00:53:47;;;;;;;;;;;;;;;5.12;61.90;99900.81;1609590;88;20281;-62
2021/04/05 00:56:16;;;;;;;;;;;;;;;5.13;61.89;99890.50;1610214;88;20303;-63
2021/04/05 00:58:43;;;;;;;;;;;;;;;5.16;61.84;99896.75;1631612;83;21306;-61
2021/04/05 01:01:13;;;;;;;;;;;;;;;5.13;61.82;99893.16;1699429;82;20247;-62
2021/04/05 01:03:42;;;;;;;;;;;;;;;5.14;61.91;99893.48;1733469;80;20235;-61
2021/04/05 01:06:30;;;;;;;;;;;;;;;5.16;62.00;99893.29;1731079;80;20228;-62
2021/04/05 01:08:58;;;;;;;;;;;;;;;5.19;62.00;99895.55;1733516;80;20275;-60
2021/04/05 01:11:29;;;;;;;;;;;;;;;5.21;61.98;99890.85;1731863;80;21339;-62
2021/04/05 01:13:58;;;;;;;;;;;;;;;5.22;61.96;99889.33;1732206;80;20268;-62
2021/04/05 01:16:27;;;;;;;;;;;;;;;5.26;61.96;99885.79;1730927;80;20234;-61
2021/04/05 01:18:55;;;;;;;;;;;;;;;5.29;61.82;99888.05;1753652;79;20161;-63
2021/04/05 01:21:24;;;;;;;;;;;;;;;5.30;61.77;99887.05;1755297;79;20236;-65
2021/04/05 01:23:51;;;;;;;;;;;;;;;5.31;61.66;99879.88;1760320;79;21274;-62
2021/04/05 01:26:19;;;;;;;;;;;;;;;5.30;61.71;99882.22;1756677;79;20158;-65
2021/04/05 01:28:48;;;;;;;;;;;;;;;5.30;61.65;99878.23;1758234;79;20278;-60
2021/04/05 01:31:16;;;;;;;;;;;;;;;5.30;61.55;99876.91;1759536;79;20230;-66
2021/04/05 01:33:44;;;;;;;;;;;;;;;5.25;61.48;99876.16;1757967;79;20288;-66
2021/04/05 01:36:13;;;;;;;;;;;;;;;5.19;61.48;99876.95;1754760;79;21285;-61
2021/04/05 01:38:46;;;;;;;;;;;;;;;5.13;61.63;99880.39;1759399;79;20166;-62
2021/04/05 01:41:25;;;;;;;;;;;;;;;5.10;61.75;99872.30;1759327;79;20182;-63
2021/04/05 01:43:53;;;;;;;;;;;;;;;5.12;61.81;99879.55;1759159;79;20250;-62
2021/04/05 01:46:23;;;;;;;;;;;;;;;5.12;61.74;99875.56;1758798;79;20230;-63
2021/04/05 01:48:51;;;;;;;;;;;;;;;5.12;61.78;99874.23;1758413;79;21932;-62
2021/04/05 01:51:21;;;;;;;;;;;;;;;5.11;61.74;99871.29;1759072;79;20279;-62
2021/04/05 01:53:49;;;;;;;;;;;;;;;5.11;61.71;99869.95;1758384;79;20290;-62
2021/04/05 01:56:18;;;;;;;;;;;;;;;5.08;61.77;99873.81;1757865;79;20334;-61
2021/04/05 01:58:47;;;;;;;;;;;;;;;5.07;61.79;99870.84;1758935;79;20304;-63
2021/04/05 02:01:21;;;;;;;;;;;;;;;5.05;61.83;99869.38;1756852;79;21196;-64
2021/04/05 02:03:49;;;;;;;;;;;;;;;5.06;61.83;99867.05;1759763;79;20245;-64
2021/04/05 02:06:24;;;;;;;;;;;;;;;5.08;61.57;99866.36;1748509;79;20273;-64
2021/04/05 02:08:52;;;;;;;;;;;;;;;5.08;61.32;99866.36;1759674;79;20225;-64
2021/04/05 02:11:25;;;;;;;;;;;;;;;5.06;61.17;99870.55;1758915;79;20507;-64
2021/04/05 02:13:57;;;;;;;;;;;;;;;5.03;61.03;99858.95;1758069;79;20331;-65
2021/04/05 02:16:27;;;;;;;;;;;;;;;4.97;60.89;99855.75;1760548;79;20230;-63
2021/04/05 02:18:57;;;;;;;;;;;;;;;4.94;60.78;99854.00;1758858;79;20245;-64
2021/04/05 02:21:26;;;;;;;;;;;;;;;4.85;60.81;99851.47;1758281;79;20615;-64
2021/04/05 02:23:54;;;;;;;;;;;;;;;4.80;60.94;99851.73;1758271;79;20290;-64
2021/04/05 02:26:23;;;;;;;;;;;;;;;4.75;61.01;99849.66;1735161;79;21280;-63
2021/04/05 02:28:52;;;;;;;;;;;;;;;4.72;61.11;99843.41;1756642;79;20175;-65
2021/04/05 02:31:22;;;;;;;;;;;;;;;4.68;61.27;99844.80;1744316;79;20519;-64
2021/04/05 02:33:51;;;;;;;;;;;;;;;4.62;61.42;99842.40;1758113;79;20243;-65
2021/04/05 02:36:22;;;;;;;;;;;;;;;4.58;61.63;99845.64;1759213;79;20324;-65
2021/04/05 02:38:54;;;;;;;;;;;;;;;4.54;61.92;99840.70;1758736;79;21220;-62
2021/04/05 02:41:22;;;;;;;;;;;;;;;4.51;62.07;99838.44;1756079;79;20170;-62
2021/04/05 02:43:52;;;;;;;;;;;;;;;4.47;62.20;99828.40;1758485;79;20227;-62
2021/04/05 02:46:26;;;;;;;;;;;;;;;4.43;63.06;99821.83;1758228;79;20148;-63
2021/04/05 02:48:54;;;;;;;;;;;;;;;4.44;63.50;99824.28;1754784;79;20235;-63
2021/04/05 02:51:21;;;;;;;;;;;;;;;4.48;63.51;99821.57;1759488;79;21205;-63
2021/04/05 02:53:56;;;;;;;;;;;;;;;4.51;63.40;99825.17;1759336;79;20438;-62
2021/04/05 02:56:24;;;;;;;;;;;;;;;4.53;63.29;99831.61;1759361;79;20175;-63
2021/04/05 02:58:53;;;;;;;;;;;;;;;4.53;63.20;99828.47;1759543;79;20267;-64
2021/04/05 03:01:21;;;;;;;;;;;;;;;4.54;63.10;99820.80;1759469;79;20266;-64
2021/04/05 03:03:49;;;;;;;;;;;;;;;4.54;62.94;99819.47;1757369;79;21219;-64
2021/04/05 03:06:19;;;;;;;;;;;;;;;4.56;62.83;99812.16;1757357;79;20245;-64
2021/04/05 03:08:48;;;;;;;;;;;;;;;4.57;62.80;99811.64;1755001;79;20190;-63
2021/04/05 03:11:18;;;;;;;;;;;;;;;4.58;62.94;99811.13;1747537;80;20254;-62
2021/04/05 03:13:47;;;;;;;;;;;;;;;4.53;63.09;99807.72;1759480;79;20543;-63
2021/04/05 03:16:18;;;;;;;;;;;;;;;4.51;63.30;99809.75;1755617;79;21312;-62
2021/04/05 03:18:46;;;;;;;;;;;;;;;4.51;63.11;99807.91;1750078;79;20330;-62
2021/04/05 03:21:15;;;;;;;;;;;;;;;4.47;62.86;99807.16;1737600;80;20301;-63
2021/04/05 03:23:43;;;;;;;;;;;;;;;4.41;62.91;99808.75;1721446;81;20260;-62
2021/04/05 03:26:11;;;;;;;;;;;;;;;4.38;63.06;99809.13;1741958;80;20250;-62
2021/04/05 03:28:39;;;;;;;;;;;;;;;4.35;63.21;99801.55;1741537;80;21386;-62
2021/04/05 03:31:18;;;;;;;;;;;;;;;4.35;63.31;99805.02;1720963;80;20269;-63
2021/04/05 03:34:12;;;;;;;;;;;;;;;4.36;63.32;99807.19;1738899;80;20367;-62
2021/04/05 03:36:46;;;;;;;;;;;;;;;4.41;63.48;99801.30;1741605;80;20160;-63
2021/04/05 03:39:14;;;;;;;;;;;;;;;4.44;63.62;99797.74;1741136;80;20290;-63
2021/04/05 03:41:51;;;;;;;;;;;;;;;4.52;63.70;99798.10;1740665;80;21143;-63
2021/04/05 03:44:43;;;;;;;;;;;;;;;4.58;63.67;99801.34;1741868;80;20868;-63
2021/04/05 03:47:39;;;;;;;;;;;;;;;4.66;63.46;99803.02;1743383;80;20241;-63
2021/04/05 03:50:16;;;;;;;;;;;;;;;4.72;62.93;99803.58;1740937;80;20580;-63
2021/04/05 03:52:57;;;;;;;;;;;;;;;4.76;62.38;99801.37;1741729;80;20283;-63
2021/04/05 03:55:26;;;;;;;;;;;;;;;4.79;62.02;99804.96;1622660;86;21232;-63
2021/04/05 03:57:54;;;;;;;;;;;;;;;4.79;61.90;99799.13;1622277;86;20328;-62
2021/04/05 04:00:23;;;;;;;;;;;;;;;4.79;61.75;99799.13;1617771;86;20261;-62
2021/04/05 04:02:52;;;;;;;;;;;;;;;4.74;61.80;99800.20;1601730;86;20280;-61
2021/04/05 04:05:31;;;;;;;;;;;;;;;4.72;61.76;99803.06;1620718;86;20232;-62
2021/04/05 04:10:28;;;;;;;;;;;;;;;4.75;61.94;99808.50;1621824;86;20247;-62
2021/04/05 04:12:56;;;;;;;;;;;;;;;4.84;61.76;99811.83;1648385;81;20279;-62
2021/04/05 04:15:24;;;;;;;;;;;;;;;4.91;61.48;99812.69;1718772;81;20275;-61
2021/04/05 04:17:52;;;;;;;;;;;;;;;4.98;61.29;99814.89;1739880;80;20752;-60
2021/04/05 04:20:20;;;;;;;;;;;;;;;5.30;60.97;99815.77;1757728;79;21213;-61
2021/04/05 04:22:48;;;;;;;;;;;;;;;5.94;60.26;99814.58;1758181;79;20171;-65
2021/04/05 04:25:16;;;;;;;;;;;;;;;7.04;58.49;99809.39;1754626;79;20255;-60
2021/04/05 04:27:45;;;;;;;;;;;;;;;8.36;55.96;99807.64;1759138;79;20317;-63
2021/04/05 04:30:31;;;;;;;;;;;;;;;9.74;52.54;99809.66;1756670;79;20337;-62
2021/04/05 04:32:48;;;;;;;;;;;;;;;11.05;48.62;99804.84;1755269;79;21214;-61
2021/04/05 04:35:16;;;;;;;;;;;;;;;12.22;45.25;99806.59;1757978;79;20266;-62
2021/04/05 04:37:44;;;;;;;;;;;;;;;13.17;43.01;99813.97;1759295;79;20603;-63
2021/04/05 04:40:12;;;;;;;;;;;;;;;14.10;40.54;99811.28;1758284;81;20191;-62
2021/04/05 04:42:40;;;;;;;;;;;;;;;14.93;38.35;99811.44;1757830;81;20293;-61
2021/04/05 04:45:10;;;;;;;;;;;;;;;15.69;36.86;99812.05;1760367;81;21320;-60
2021/04/05 04:47:38;;;;;;;;;;;;;;;16.29;35.47;99810.57;1760069;81;20163;-60
2021/04/05 04:50:07;;;;;;;;;;;;;;;16.84;34.42;99811.36;1758941;81;20257;-61
2021/04/05 04:52:35;;;;;;;;;;;;;;;17.42;33.51;99812.32;1758261;81;20603;-62
2021/04/05 04:55:03;;;;;;;;;;;;;;;17.96;32.39;99816.16;1748375;81;20273;-61
2021/04/05 04:57:31;;;;;;;;;;;;;;;18.35;31.63;99815.33;1757811;80;21152;-62
2021/04/05 04:59:59;;;;;;;;;;;;;;;18.13;31.47;99810.89;1754400;81;20167;-61
2021/04/05 05:02:28;;;;;;;;;;;;;;;17.45;32.24;99806.91;1749388;81;20144;-63
2021/04/05 05:04:55;;;;;;;;;;;;;;;17.03;32.67;99797.28;1747666;81;20280;-62
2021/04/05 05:07:23;;;;;;;;;;;;;;;16.95;32.92;99797.31;1755508;81;20239;-62
2021/04/05 05:09:51;;;;;;;;;;;;;;;17.27;32.54;99800.17;1758898;81;21207;-62
2021/04/05 05:12:20;;;;;;;;;;;;;;;17.80;31.99;99799.66;1759049;81;20245;-60
2021/04/05 05:14:49;;;;;;;;;;;;;;;18.54;31.12;99800.52;1757347;81;20164;-60
2021/04/05 05:17:17;;;;;;;;;;;;;;;19.22;30.29;99800.69;1757910;80;20353;-61
2021/04/05 05:19:45;;;;;;;;;;;;;;;19.41;29.88;99799.38;1757050;81;20268;-58
2021/04/05 05:22:16;;;;;;;;;;;;;;;19.18;29.95;99801.00;1757705;81;21382;-60
2021/04/05 05:24:44;;;;;;;;;;;;;;;18.94;30.43;99803.16;1757932;81;20538;-61
2021/04/05 05:27:13;;;;;;;;;;;;;;;18.88;30.55;99801.05;1758291;80;20235;-60
2021/04/05 05:29:41;;;;;;;;;;;;;;;18.77;30.51;99798.69;1758718;81;20245;-60
2021/04/05 05:32:09;;;;;;;;;;;;;;;18.38;31.18;99797.68;1756547;81;20321;-61
2021/04/05 05:34:36;;;;;;;;;;;;;;;18.41;31.72;99798.47;1757044;81;21205;-61
2021/04/05 05:37:05;;;;;;;;;;;;;;;18.98;31.12;99788.48;1757792;81;20314;-61
2021/04/05 05:39:33;;;;;;;;;;;;;;;19.66;29.96;99785.20;1758905;81;20250;-63
2021/04/05 05:42:26;;;;;;;;;;;;;;;19.97;29.36;99780.72;1758958;81;20696;-66
2021/04/05 05:45:03;;;;;;;;;;;;;;;19.89;29.38;99778.09;1734772;81;20294;-63
2021/04/05 05:47:57;;;;;;;;;;;;;;;19.77;29.40;99775.25;1758756;81;21556;-63
2021/04/05 05:50:35;;;;;;;;;;;;;;;19.65;29.74;99776.78;1760298;81;20167;-63
2021/04/05 05:53:24;;;;;;;;;;;;;;;19.65;29.91;99772.70;1757593;81;20313;-63
2021/04/05 05:56:14;;;;;;;;;;;;;;;19.72;30.12;99771.80;1758857;81;20510;-64
2021/04/05 05:59:03;;;;;;;;;;;;;;;19.77;30.26;99768.98;1758898;81;20233;-63
2021/04/05 06:01:56;;;;;;;;;;;;;;;20.19;29.87;99767.30;1756806;81;21426;-63
2021/04/05 06:04:57;;;;;;;;;;;;;;;20.33;29.53;99758.38;1667394;85;21006;-63
2021/04/05 06:07:43;;;;;;;;;;;;;;;20.65;29.54;99764.34;1669350;84;20288;-63
2021/04/05 06:10:50;;;;;;;;;;;;;;;21.62;28.33;99752.67;1668228;85;20354;-62
2021/04/05 06:13:43;;;;;;;;;;;;;;;22.52;27.41;99759.52;1829892;77;20255;-64
2021/04/05 06:16:27;;;;;;;;;;;;;;;22.64;26.34;99760.88;1818904;79;20161;-63
2021/04/05 06:19:20;;;;;;;;;;;;;;;22.57;26.68;99759.40;1818309;79;21375;-63
2021/04/05 06:22:17;;;;;;;;;;;;;;;22.58;25.75;99758.83;1817121;79;20109;-65
2021/04/05 06:24:52;;;;;;;;;;;;;;;22.48;26.04;99754.46;1817349;78;20568;-63
2021/04/05 06:27:32;;;;;;;;;;;;;;;22.26;25.94;99757.99;1816728;79;20129;-65
2021/04/05 06:30:06;;;;;;;;;;;;;;;21.84;26.18;99766.33;1818864;78;20931;-63
2021/04/05 06:33:14;;;;;;;;;;;;;;;21.53;26.50;99759.40;1818904;79;21199;-63
2021/04/05 06:35:49;;;;;;;;;;;;;;;21.50;26.47;99764.08;1818791;79;20125;-63
2021/04/05 06:38:28;;;;;;;;;;;;;;;21.12;27.03;99761.02;1814957;78;20132;-64
2021/04/05 06:40:57;;;;;;;;;;;;;;;20.69;27.53;99761.31;1720640;82;20242;-63
2021/04/05 06:43:59;;;;;;;;;;;;;;;20.53;27.97;99754.50;1830106;77;20267;-63
2021/04/05 06:46:36;;;;;;;;;;;;;;;20.86;28.04;99755.83;1800888;79;20139;-64
2021/04/05 06:49:07;;;;;;;;;;;;;;;21.91;27.71;99755.55;1732486;79;21224;-62
2021/04/05 06:52:02;;;;;;;;;;;;;;;22.99;26.73;99753.62;1793664;79;20178;-64
2021/04/05 06:55:02;;;;;;;;;;;;;;;23.68;24.66;99750.03;1795735;79;20196;-64
2021/04/05 06:57:36;;;;;;;;;;;;;;;23.91;24.19;99740.56;1791549;79;20822;-65
2021/04/05 07:00:10;;;;;;;;;;;;;;;23.79;24.17;99740.36;1797070;79;20167;-66
2021/04/05 07:02:58;;;;;;;;;;;;;;;23.36;23.24;99738.40;1801175;79;22177;-63
2021/04/05 07:05:47;;;;;;;;;;;;;;;22.56;24.36;99731.05;1800183;79;20111;-64
2021/04/05 07:08:27;;;;;;;;;;;;;;;22.21;24.29;99728.88;1784589;79;20198;-65
2021/04/05 07:11:05;;;;;;;;;;;;;;;22.00;24.36;99729.95;1782988;79;20274;-63
2021/04/05 07:13:35;;;;;;;;;;;;;;;22.10;24.28;99726.17;1783914;79;20353;-65
2021/04/05 07:16:13;;;;;;;;;;;;;;;22.15;24.53;99731.48;1626730;85;21227;-64
2021/04/05 07:19:06;;;;;;;;;;;;;;;22.26;24.20;99726.59;1651555;85;20378;-62
2021/04/05 07:21:47;;;;;;;;;;;;;;;22.06;24.49;99722.45;1651997;85;20307;-64
2021/04/05 07:24:27;;;;;;;;;;;;;;;21.93;24.38;99720.59;1644677;85;20265;-65
2021/04/05 07:27:27;;;;;;;;;;;;;;;21.57;24.86;99718.14;1653597;85;20248;-64
2021/04/05 07:30:16;;;;;;;;;;;;;;;21.31;26.05;99716.50;1643680;85;21230;-64
2021/04/05 07:33:04;;;;;;;;;;;;;;;;;;1643926;85;20271;-63
2021/04/05 07:35:44;;;;;;;;;;;;;;;20.59;26.41;99707.02;1796568;79;20233;-65
2021/04/05 07:38:15;;;;;;;;;;;;;;;20.09;26.58;99705.69;1787440;79;20226;-66
2021/04/05 07:41:03;;;;;;;;;;;;;;;19.52;27.38;99704.39;1791170;79;20220;-64
2021/04/05 07:43:53;;;;;;;;;;;;;;;18.98;28.15;99702.93;1780559;79;21216;-64
2021/04/05 07:46:48;;;;;;;;;;;;;;;18.45;28.56;99705.91;1781097;79;20207;-66
2021/04/05 07:49:32;;;;;;;;;;;;;;;17.97;28.46;99701.16;1779003;79;20112;-66
2021/04/05 07:52:13;;;;;;;;;;;;;;;17.51;29.64;99702.27;1779667;79;20225;-63
2021/04/05 07:54:41;;;;;;;;;;;;;;;17.12;29.89;99700.32;1782015;79;20235;-64
2021/04/05 07:57:37;;;;;;;;;;;;;;;16.82;30.62;99697.95;1783366;79;21264;-64
2021/04/05 08:00:31;;;;;;;;;;;;;;;16.66;31.26;99695.58;1771005;79;20573;-64
2021/04/05 08:03:15;;;;;;;;;;;;;;;16.34;31.10;99685.89;1731778;79;20216;-64
2021/04/05 08:09:15;;;;;;;;;;;;;;;15.57;32.27;99683.42;1758834;79;20136;-63
2021/04/05 08:15:21;;;;;;;;;;;;;;;14.93;32.80;99668.94;1777010;79;20156;-65
2021/04/05 08:21:19;;;;;;;;;;;;;;;14.72;34.04;99655.35;1761352;81;20148;-63
2021/04/05 08:27:41;;;;;;;;;;;;;;;14.55;34.60;99651.48;1757785;81;20140;-61
2021/04/05 08:34:06;;;;;;;;;;;;;;;14.36;35.02;99653.25;1758575;81;20183;-65
2021/04/05 08:40:14;;;;;;;;;;;;;;;13.68;34.19;99642.26;1764076;80;20249;-62
2021/04/05 08:42:59;;;;;;;;;;;;;;;12.94;34.92;99644.95;1831231;77;20233;-62
2021/04/05 08:45:50;;;;;;;;;;;;;;;12.64;35.66;99640.84;1803082;79;20135;-63
2021/04/05 08:48:19;;;;;;;;;;;;;;;12.42;37.10;99634.09;1801633;79;21209;-63
2021/04/05 08:50:52;;;;;;;;;;;;;;;12.57;37.94;99630.28;1801752;79;20725;-62
2021/04/05 08:53:20;;;;;;;;;;;;;;;12.71;37.95;99625.34;1799406;79;20172;-64
2021/04/05 08:55:49;;;;;;;;;;;;;;;12.71;38.03;99627.22;1800346;79;20192;-63
2021/04/05 08:58:35;;;;;;;;;;;;;;;12.54;37.45;99619.20;1800013;79;20181;-64
2021/04/05 09:01:04;;;;;;;;;;;;;;;12.37;37.94;99614.69;1799658;79;21153;-64
2021/04/05 09:03:33;;;;;;;;;;;;;;;12.36;37.76;99613.59;1799353;79;20245;-65
2021/04/05 09:06:01;;;;;;;;;;;;;;;12.30;37.86;99612.70;1803728;79;20135;-66
2021/04/05 09:08:29;;;;;;;;;;;;;;;12.21;37.83;99610.16;1781750;79;20225;-65
2021/04/05 09:11:02;;;;;;;;;;;;;;;12.02;38.21;99609.08;1798169;79;20227;-65
2021/04/05 09:13:56;;;;;;;;;;;;;;;12.00;38.36;99602.31;1803667;79;21202;-66
2021/04/05 09:16:59;;;;;;;;;;;;;;;11.94;38.38;99604.14;1801689;79;20202;-66
2021/04/05 09:19:37;;;;;;;;;;;;;;;11.72;38.56;99596.78;1705511;83;20137;-64
2021/04/05 09:22:38;;;;;;;;;;;;;;;11.51;38.97;99592.13;1776721;79;20281;-66
2021/04/05 09:25:26;;;;;;;;;;;;;;;11.40;39.19;99589.28;1797129;79;20243;-63
2021/04/05 09:28:17;;;;;;;;;;;;;;;11.29;39.60;99588.00;1805340;79;23418;-64
2021/04/05 09:31:01;;;;;;;;;;;;;;;11.30;39.74;99585.08;1804040;79;20256;-64
2021/04/05 09:33:48;;;;;;;;;;;;;;;11.20;39.57;99583.55;1801620;79;20152;-63
2021/04/05 09:36:45;;;;;;;;;;;;;;;11.07;39.56;99575.80;1788278;79;20123;-62
2021/04/05 09:39:42;;;;;;;;;;;;;;;11.04;39.80;99563.69;1806655;79;20243;-65
2021/04/05 09:45:47;;;;;;;;;;;;;;;11.54;39.34;99564.30;1799286;79;20180;-64
2021/04/05 09:52:17;;;;;;;;;;;;;;;11.89;37.77;99557.82;1798707;79;20159;-64
2021/04/05 09:58:23;;;;;;;;;;;;;;;11.92;38.45;99557.87;1799000;79;20155;-64
2021/04/05 10:04:24;;;;;;;;;;;;;;;11.83;37.20;99553.98;1801520;79;20196;-64
2021/04/05 10:10:27;;;;;;;;;;;;;;;11.67;38.31;99546.22;1796535;79;20308;-65
2021/04/05 10:16:26;;;;;;;;;;;;;;;11.67;37.31;99540.31;1796424;79;20485;-66
2021/04/05 10:22:26;;;;;;;;;;;;;;;11.39;37.36;99537.19;1796925;79;20160;-63
2021/04/05 10:28:27;;;;;;;;;;;;;;;11.10;37.35;99535.92;1797661;79;20168;-64
2021/04/05 10:34:26;;;;;;;;;;;;;;;10.82;38.02;99522.83;1797229;79;20137;-65
2021/04/05 10:40:26;;;;;;;;;;;;;;;10.82;37.98;99515.28;1803790;78;20147;-62
2021/04/05 10:42:58;;;;;;;;;;;;;;;10.87;37.89;99509.49;1732798;80;20237;-62
2021/04/05 10:45:27;;;;;;;;;;;;;;;10.97;37.43;99506.73;1776947;80;20152;-63
2021/04/05 10:48:06;;;;;;;;;;;;;;;10.97;37.42;99502.16;1771014;80;20242;-63
2021/04/05 10:50:36;;;;;;;;;;;;;;;10.94;37.31;99502.66;1774565;80;20478;-63
2021/04/05 10:53:07;;;;;;;;;;;;;;;11.01;37.88;99497.95;1778466;80;20151;-63
2021/04/05 10:55:37;;;;;;;;;;;;;;;11.16;37.04;99493.88;1772057;80;22115;-63
2021/04/05 10:58:05;;;;;;;;;;;;;;;11.21;36.86;99488.61;1773146;79;20226;-63
2021/04/05 11:00:38;;;;;;;;;;;;;;;11.22;37.07;99483.00;1773621;79;20232;-63
2021/04/05 11:03:17;;;;;;;;;;;;;;;11.36;36.77;99486.70;1770680;80;20109;-63
2021/04/05 11:05:46;;;;;;;;;;;;;;;11.52;36.58;99481.84;1775291;80;20468;-64
2021/04/05 11:08:16;;;;;;;;;;;;;;;11.63;36.32;99479.31;1779717;80;22125;-63
2021/04/05 11:10:45;;;;;;;;;;;;;;;11.73;36.09;99476.25;1771368;80;20190;-62
2021/04/05 11:13:21;;;;;;;;;;;;;;;11.87;36.17;99470.53;1771392;80;20214;-64
2021/04/05 11:15:50;;;;;;;;;;;;;;;12.02;35.87;99468.59;1771711;80;20160;-62
2021/04/05 11:18:19;;;;;;;;;;;;;;;12.23;35.68;99463.77;1775243;80;20222;-63
2021/04/05 11:20:49;;;;;;;;;;;;;;;12.40;35.60;99460.98;1779711;80;21241;-63
2021/04/05 11:23:19;;;;;;;;;;;;;;;12.53;34.46;99456.27;1773826;80;20486;-63
2021/04/05 11:25:49;;;;;;;;;;;;;;;12.47;32.32;99446.53;1775057;80;20440;-63
2021/04/05 11:28:28;;;;;;;;;;;;;;;12.22;32.43;99450.04;1774145;80;20133;-64
2021/04/05 11:31:00;;;;;;;;;;;;;;;12.09;34.46;99442.36;1773308;80;21015;-63
2021/04/05 11:33:29;;;;;;;;;;;;;;;12.06;35.33;99436.95;1774290;80;22605;-64
2021/04/05 11:35:58;;;;;;;;;;;;;;;12.04;35.17;99439.60;1769230;80;20312;-63
2021/04/05 11:38:26;;;;;;;;;;;;;;;11.97;34.88;99429.57;1773330;79;20493;-64
2021/04/05 11:44:13;;;;;;;;;;;;;;;11.62;34.78;99432.06;1790555;78;20201;-63
2021/04/05 11:50:20;;;;;;;;;;;;;;;11.43;34.97;99429.65;1794643;79;20179;-63
2021/04/05 11:56:25;;;;;;;;;;;;;;;11.55;35.15;99412.10;1796486;79;20483;-63
2021/04/05 12:02:27;;;;;;;;;;;;;;;11.40;34.17;99417.53;1792315;79;20519;-63
2021/04/05 12:08:28;;;;;;;;;;;;;;;11.28;34.49;99417.33;1791541;79;20157;-63
2021/04/05 12:14:26;;;;;;;;;;;;;;;11.48;34.56;99412.27;1794372;79;20590;-64
2021/04/05 12:20:27;;;;;;;;;;;;;;;11.73;34.26;99405.62;1794142;79;20151;-63
2021/04/05 12:26:13;;;;;;;;;;;;;;;11.86;33.99;99391.81;1786809;79;20160;-64
2021/04/05 12:32:17;;;;;;;;;;;;;;;11.97;33.62;99393.31;1789150;79;20222;-64
2021/04/05 12:38:16;;;;;;;;;;;;;;;12.04;33.46;99386.70;1715254;83;20148;-64
2021/04/05 12:40:52;;;;;;;;;;;;;;;11.99;32.56;99381.80;1819332;77;20698;-63
2021/04/05 12:43:26;;;;;;;;;;;;;;;11.80;32.44;99380.73;1805648;79;20141;-63
2021/04/05 12:45:55;;;;;;;;;;;;;;;11.70;32.20;99384.13;1803986;79;21272;-63
2021/04/05 12:48:27;;;;;;;;;;;;;;;11.56;32.89;99387.70;1800481;79;20172;-63
2021/04/05 12:50:59;;;;;;;;;;;;;;;11.52;33.23;99388.44;1800809;79;20184;-62
2021/04/05 12:53:28;;;;;;;;;;;;;;;11.52;33.96;99383.87;1801819;79;20141;-63
2021/04/05 12:55:56;;;;;;;;;;;;;;;11.53;33.95;99390.87;1802703;79;20168;-63
2021/04/05 12:58:28;;;;;;;;;;;;;;;11.53;34.16;99386.05;1801342;79;21199;-62
2021/04/05 13:00:56;;;;;;;;;;;;;;;11.51;34.58;99386.80;1798523;79;20226;-63
2021/04/05 13:03:29;;;;;;;;;;;;;;;11.50;34.51;99388.69;1801488;79;20231;-64
2021/04/05 13:06:12;;;;;;;;;;;;;;;11.50;34.21;99383.33;1798449;79;20587;-63
2021/04/05 13:08:50;;;;;;;;;;;;;;;11.54;34.30;99383.63;1800519;79;20514;-63
2021/04/05 13:11:29;;;;;;;;;;;;;;;11.57;35.13;99381.78;1800239;79;21197;-63
2021/04/05 13:14:03;;;;;;;;;;;;;;;11.63;35.56;99372.77;1801849;79;20259;-63
2021/04/05 13:16:33;;;;;;;;;;;;;;;11.69;34.72;99372.27;1800954;79;20377;-64
2021/04/05 13:19:02;;;;;;;;;;;;;;;11.68;33.45;99372.01;1801751;79;20326;-65
2021/04/05 13:21:36;;;;;;;;;;;;;;;11.60;34.03;99375.11;1802007;77;20319;-64
2021/04/05 13:24:05;;;;;;;;;;;;;;;11.53;33.39;99369.41;1804763;77;21697;-63
2021/04/05 13:26:37;;;;;;;;;;;;;;;11.52;34.07;99367.77;1769819;79;20242;-64
2021/04/05 13:29:05;;;;;;;;;;;;;;;11.54;34.51;99365.67;1802402;79;20265;-63
2021/04/05 13:31:33;;;;;;;;;;;;;;;11.58;33.68;99368.11;1802484;79;20524;-62
2021/04/05 13:34:02;;;;;;;;;;;;;;;11.61;33.25;99368.16;1803658;79;20255;-62
2021/04/05 13:36:29;;;;;;;;;;;;;;;11.60;33.85;99369.75;1802377;79;21341;-64
2021/04/05 13:39:03;;;;;;;;;;;;;;;11.58;33.72;99371.34;1788685;79;20169;-64
2021/04/05 13:41:34;;;;;;;;;;;;;;;11.54;33.57;99367.52;1745885;81;20193;-64
2021/04/05 13:44:11;;;;;;;;;;;;;;;11.49;33.76;99360.76;1737763;81;20163;-67
2021/04/05 13:46:45;;;;;;;;;;;;;;;11.49;34.15;99368.81;1741326;81;20243;-64
2021/04/05 13:49:16;;;;;;;;;;;;;;;11.49;34.83;99365.59;1741187;81;21377;-64
2021/04/05 13:51:48;;;;;;;;;;;;;;;11.52;34.72;99362.95;1740801;81;20148;-65
2021/04/05 13:54:22;;;;;;;;;;;;;;;11.52;34.35;99364.28;1708611;81;20541;-64
2021/04/05 13:57:01;;;;;;;;;;;;;;;11.56;33.86;99361.39;1740094;81;20259;-64
2021/04/05 13:59:33;;;;;;;;;;;;;;;11.62;33.52;99361.73;1741273;81;20198;-65
2021/04/05 14:02:02;;;;;;;;;;;;;;;11.67;33.37;99355.61;1737818;81;22096;-65
2021/04/05 14:04:40;;;;;;;;;;;;;;;11.65;31.99;99350.49;1737343;81;20365;-65
2021/04/05 14:07:08;;;;;;;;;;;;;;;11.60;31.78;99351.79;1739466;81;20278;-65
2021/04/05 14:09:38;;;;;;;;;;;;;;;11.56;31.46;99347.97;1708755;81;20243;-64
2021/04/05 14:12:07;;;;;;;;;;;;;;;11.56;31.44;99343.95;1739921;81;20508;-66
2021/04/05 14:14:37;;;;;;;;;;;;;;;11.58;31.64;99340.47;1741273;81;21318;-66
2021/04/05 14:17:27;;;;;;;;;;;;;;;11.62;31.71;99335.43;1708597;81;20274;-65
2021/04/05 14:19:58;;;;;;;;;;;;;;;11.66;31.22;99347.27;1739979;81;20140;-65
2021/04/05 14:22:42;;;;;;;;;;;;;;;11.64;30.63;99342.69;1738688;81;20337;-65
2021/04/05 14:25:21;;;;;;;;;;;;;;;11.59;30.19;99330.02;1736980;81;20240;-66
2021/04/05 14:28:08;;;;;;;;;;;;;;;11.54;30.05;99337.48;1740853;81;21374;-66
2021/04/05 14:30:38;;;;;;;;;;;;;;;11.50;30.10;99336.89;1741373;81;20227;-66
2021/04/05 14:33:14;;;;;;;;;;;;;;;11.43;29.89;99338.95;1741877;81;20160;-64
2021/04/05 14:35:43;;;;;;;;;;;;;;;11.34;30.18;99335.34;1742138;81;20311;-64
2021/04/05 14:38:14;;;;;;;;;;;;;;;11.28;30.22;99328.80;1738036;81;20291;-63
2021/04/05 14:40:45;;;;;;;;;;;;;;;11.24;29.77;99333.86;1737809;80;21216;-64
2021/04/05 14:43:21;;;;;;;;;;;;;;;11.17;29.45;99328.69;1737836;81;20136;-65
2021/04/05 14:45:49;;;;;;;;;;;;;;;11.10;29.96;99332.08;1741960;81;20143;-64
2021/04/05 14:48:21;;;;;;;;;;;;;;;11.05;30.32;99326.62;1738741;81;20609;-64
2021/04/05 14:50:52;;;;;;;;;;;;;;;10.99;30.66;99318.23;1741574;81;20219;-64
2021/04/05 14:53:29;;;;;;;;;;;;;;;10.90;30.97;99329.09;1741439;81;21188;-66
2021/04/05 14:56:13;;;;;;;;;;;;;;;10.81;31.01;99322.80;1742385;81;20156;-65
2021/04/05 14:58:40;;;;;;;;;;;;;;;10.78;31.04;99326.50;1742313;81;20500;-66
2021/04/05 15:01:15;;;;;;;;;;;;;;;10.77;31.78;99322.19;1741618;81;20239;-63